createdAt,value
2022-11-20T00:01:25.282Z,8.30
2022-11-20T00:03:53.109Z,8.30
2022-11-20T00:06:20.710Z,8.30
2022-11-20T00:08:48.097Z,8.20
2022-11-20T00:11:22.932Z,8.10
2022-11-20T00:13:51.214Z,8.00
2022-11-20T00:16:20.681Z,8.00
2022-11-20T00:18:47.650Z,8.00
2022-11-20T00:21:14.683Z,8.10
2022-11-20T00:23:42.487Z,7.90
2022-11-20T00:26:10.699Z,7.90
2022-11-20T00:28:37.693Z,7.90
2022-11-20T05:30:46.454Z,7.90
2022-11-20T05:33:13.566Z,7.80
2022-11-20T05:35:40.544Z,7.70
2022-11-20T05:38:07.671Z,7.70
2022-11-20T05:40:34.842Z,7.70
2022-11-20T05:43:02.146Z,7.70
2022-11-20T05:45:29.142Z,7.60
2022-11-20T05:47:59.065Z,7.60
2022-11-20T05:50:26.087Z,7.50
2022-11-20T05:52:53.077Z,7.60
2022-11-20T05:55:20.033Z,7.50
2022-11-20T05:57:47.034Z,7.50
2022-11-20T06:00:14.513Z,7.60
2022-11-20T06:02:41.589Z,7.40
2022-11-20T06:05:08.826Z,7.30
2022-11-20T06:07:35.839Z,7.20
2022-11-20T06:10:02.861Z,7.10
2022-11-20T06:12:31.864Z,7.10
2022-11-20T06:14:58.879Z,7.20
2022-11-20T06:17:25.823Z,7.10
2022-11-20T06:19:53.115Z,7.20
2022-11-20T06:22:20.120Z,7.10
2022-11-20T06:24:47.116Z,7.30
2022-11-20T06:27:14.064Z,7.40
2022-11-20T06:29:41.005Z,7.30
2022-11-20T06:32:07.987Z,7.40
2022-11-20T06:34:35.023Z,7.50
2022-11-20T06:37:02.046Z,7.60
2022-11-20T06:39:29.022Z,7.70
2022-11-20T06:41:58.978Z,7.70
2022-11-20T06:44:26.458Z,7.70
2022-11-20T06:46:53.425Z,7.80
2022-11-20T06:49:20.897Z,7.80
2022-11-20T06:51:48.242Z,8.10
2022-11-20T06:54:15.182Z,7.80
2022-11-20T06:56:42.196Z,7.80
2022-11-20T06:59:09.308Z,7.90
2022-11-20T07:01:36.307Z,7.80
2022-11-20T07:04:04.187Z,7.90
2022-11-20T07:06:31.502Z,7.70
2022-11-20T07:08:58.499Z,7.80
2022-11-20T07:11:25.630Z,7.90
2022-11-20T07:13:52.612Z,7.90
2022-11-20T07:16:19.566Z,7.90
2022-11-20T07:18:50.433Z,7.90
2022-11-20T07:21:18.082Z,8.30
2022-11-20T07:23:45.004Z,7.90
2022-11-20T07:26:12.256Z,8.00
2022-11-20T07:28:39.389Z,8.10
2022-11-20T07:31:07.888Z,8.10
2022-11-20T07:33:35.008Z,8.20
2022-11-20T07:36:02.407Z,8.10
2022-11-20T07:38:29.704Z,8.20
2022-11-20T07:41:02.362Z,8.20
2022-11-20T07:43:29.656Z,8.30
2022-11-20T07:45:57.363Z,8.30
2022-11-20T07:48:24.573Z,8.30
2022-11-20T07:50:54.503Z,8.40
2022-11-20T07:53:22.668Z,8.40
2022-11-20T07:55:49.994Z,8.50
2022-11-20T07:58:16.925Z,8.60
2022-11-20T08:00:43.891Z,8.60
2022-11-20T08:03:10.937Z,8.60
2022-11-20T08:05:38.236Z,8.80
2022-11-20T08:08:05.283Z,8.60
2022-11-20T08:10:32.206Z,8.60
2022-11-20T08:13:17.688Z,8.70
2022-11-20T08:15:48.487Z,8.60
2022-11-20T08:18:30.685Z,8.70
2022-11-20T08:21:02.231Z,8.70
2022-11-20T08:23:29.203Z,8.70
2022-11-20T08:25:56.192Z,8.80
2022-11-20T08:28:23.131Z,8.80
2022-11-20T08:30:51.052Z,8.80
2022-11-20T08:33:19.025Z,8.80
2022-11-20T08:35:46.163Z,8.80
2022-11-20T08:38:13.245Z,8.90
2022-11-20T08:40:40.194Z,8.90
2022-11-20T08:43:07.107Z,9.10
2022-11-20T08:45:35.441Z,9.30
2022-11-20T08:48:03.627Z,9.00
2022-11-20T08:50:33.455Z,9.10
2022-11-20T08:53:06.517Z,9.10
2022-11-20T08:55:33.650Z,9.10
2022-11-20T08:58:04.605Z,9.10
2022-11-20T09:00:31.659Z,9.20
2022-11-20T09:02:59.653Z,9.20
2022-11-20T09:05:26.605Z,9.40
2022-11-20T09:07:56.830Z,9.30
2022-11-20T09:10:24.939Z,9.30
2022-11-20T09:12:52.950Z,9.30
2022-11-20T09:15:20.569Z,9.30
2022-11-20T09:17:53.932Z,9.40
2022-11-20T09:20:21.230Z,9.40
2022-11-20T09:22:48.357Z,9.50
2022-11-20T09:25:15.299Z,9.60
2022-11-20T09:27:46.814Z,9.60
2022-11-20T09:30:14.870Z,9.70
2022-11-20T09:32:42.281Z,9.70
2022-11-20T09:35:09.739Z,9.70
2022-11-20T09:37:36.679Z,9.60
2022-11-20T09:40:03.850Z,9.60
2022-11-20T09:42:46.187Z,9.60
2022-11-20T09:45:39.013Z,9.70
2022-11-20T09:48:19.261Z,9.60
2022-11-20T09:50:49.670Z,9.60
2022-11-20T09:53:30.201Z,9.60
2022-11-20T09:55:57.584Z,9.30
2022-11-20T09:58:45.919Z,9.40
2022-11-20T10:01:14.623Z,9.40
2022-11-20T10:04:10.875Z,9.70
2022-11-20T10:06:45.385Z,9.60
2022-11-20T10:09:12.300Z,9.60
2022-11-20T10:11:42.024Z,9.50
2022-11-20T10:14:19.532Z,9.50
2022-11-20T10:16:49.387Z,9.40
2022-11-20T10:19:16.308Z,9.50
2022-11-20T10:22:09.752Z,9.40
2022-11-20T10:24:45.386Z,9.30
2022-11-20T10:27:31.343Z,9.40
2022-11-20T10:30:02.011Z,9.50
2022-11-20T10:32:39.888Z,9.80
2022-11-20T10:35:25.407Z,9.60
2022-11-20T10:37:55.937Z,9.60
2022-11-20T10:40:41.384Z,9.60
2022-11-20T10:43:12.336Z,9.60
2022-11-20T10:45:44.111Z,9.70
2022-11-20T10:48:13.489Z,9.70
2022-11-20T10:50:43.956Z,9.70
2022-11-20T10:53:29.475Z,9.80
2022-11-20T10:55:56.422Z,9.80
2022-11-20T10:58:29.555Z,9.80
2022-11-20T11:01:15.175Z,9.80
2022-11-20T11:03:44.322Z,9.80
2022-11-20T11:06:19.133Z,9.80
2022-11-20T11:08:48.306Z,9.80
2022-11-20T11:11:21.120Z,9.90
2022-11-20T11:13:48.107Z,9.70
2022-11-20T11:16:22.094Z,9.90
2022-11-20T11:18:49.181Z,10.00
2022-11-20T11:21:22.892Z,10.10
2022-11-20T11:24:03.675Z,10.10
2022-11-20T11:26:40.856Z,10.10
2022-11-20T11:29:18.733Z,10.10
2022-11-20T11:31:45.676Z,10.00
2022-11-20T11:34:14.019Z,10.10
2022-11-20T11:36:41.052Z,10.10
2022-11-20T11:39:12.576Z,10.10
2022-11-20T11:41:39.513Z,10.10
2022-11-20T11:44:42.295Z,10.30
2022-11-20T11:47:35.465Z,10.20
2022-11-20T11:50:11.397Z,10.20
2022-11-20T11:53:04.574Z,10.20
2022-11-20T11:55:39.223Z,10.30
2022-11-20T11:58:18.151Z,10.30
2022-11-20T12:00:56.073Z,10.40
2022-11-20T12:03:28.157Z,10.50
2022-11-20T12:05:58.081Z,10.60
2022-11-20T12:08:45.321Z,10.60
2022-11-20T12:11:22.809Z,10.70
2022-11-20T12:14:04.246Z,10.70
2022-11-20T12:16:38.629Z,10.70
2022-11-20T12:19:10.715Z,10.70
2022-11-20T12:21:43.426Z,10.60
2022-11-20T12:24:13.212Z,10.70
2022-11-20T12:26:49.365Z,10.70
2022-11-20T12:29:22.600Z,10.70
2022-11-20T12:31:58.618Z,10.70
2022-11-20T12:34:41.393Z,10.80
2022-11-20T12:37:26.780Z,10.80
2022-11-20T12:39:55.360Z,10.80
2022-11-20T12:42:44.027Z,10.90
2022-11-20T12:45:10.987Z,10.90
2022-11-20T12:47:50.059Z,10.90
2022-11-20T12:50:22.829Z,10.90
2022-11-20T12:52:57.537Z,10.90
2022-11-20T12:55:29.393Z,11.00
2022-11-20T12:58:01.961Z,11.00
2022-11-20T13:00:30.683Z,11.10
2022-11-20T13:03:00.475Z,11.10
2022-11-20T13:05:45.977Z,11.20
2022-11-20T13:08:21.312Z,11.30
2022-11-20T13:10:55.879Z,11.30
2022-11-20T13:13:34.828Z,11.20
2022-11-20T13:16:01.820Z,11.30
2022-11-20T13:18:32.037Z,11.40
2022-11-20T13:20:59.079Z,11.30
2022-11-20T13:23:27.472Z,11.30
2022-11-20T13:26:04.252Z,11.20
2022-11-20T13:28:31.443Z,11.20
2022-11-20T13:30:59.252Z,11.30
2022-11-20T13:33:26.298Z,11.30
2022-11-20T13:36:00.853Z,11.40
2022-11-20T13:38:33.743Z,11.30
2022-11-20T13:41:21.957Z,11.10
2022-11-20T13:43:49.091Z,11.00
2022-11-20T13:46:16.153Z,11.00
2022-11-20T13:48:44.287Z,11.10
2022-11-20T13:51:11.210Z,11.00
2022-11-20T13:53:44.153Z,10.70
2022-11-20T13:56:26.485Z,10.60
2022-11-20T13:59:05.312Z,10.80
2022-11-20T14:01:33.924Z,10.70
2022-11-20T14:04:06.392Z,11.00
2022-11-20T14:06:35.731Z,10.70
2022-11-20T14:09:02.686Z,10.50
2022-11-20T14:11:30.772Z,10.50
2022-11-20T14:14:00.538Z,10.50
2022-11-20T14:16:29.375Z,10.50
2022-11-20T14:18:58.296Z,10.50
2022-11-20T14:21:26.695Z,10.50
2022-11-20T14:23:54.716Z,10.50
2022-11-20T14:26:21.771Z,10.40
2022-11-20T14:28:49.867Z,10.50
2022-11-20T14:31:25.217Z,10.40
2022-11-20T14:33:53.573Z,10.30
2022-11-20T14:36:24.597Z,10.40
2022-11-20T14:38:52.263Z,10.50
2022-11-20T14:41:23.629Z,10.50
2022-11-20T14:43:56.633Z,10.60
2022-11-20T14:46:24.156Z,10.80
2022-11-20T14:48:52.643Z,10.70
2022-11-20T14:51:31.606Z,10.70
2022-11-20T14:54:17.118Z,10.70
2022-11-20T14:56:57.313Z,10.60
2022-11-20T14:59:28.020Z,10.70
2022-11-20T15:01:58.746Z,10.70
2022-11-20T15:04:26.245Z,10.70
2022-11-20T15:06:55.027Z,10.70
2022-11-20T15:09:22.375Z,11.00
2022-11-20T15:11:54.492Z,10.70
2022-11-20T15:14:21.845Z,10.70
2022-11-20T15:16:49.073Z,10.90
2022-11-20T15:19:23.391Z,10.70
2022-11-20T15:21:50.511Z,10.70
2022-11-20T15:24:17.775Z,10.70
2022-11-20T15:26:44.928Z,10.70
2022-11-20T15:29:13.091Z,10.70
2022-11-20T15:31:44.336Z,10.80
2022-11-20T15:34:15.089Z,10.70
2022-11-20T15:36:42.796Z,10.70
2022-11-20T15:39:10.053Z,10.60
2022-11-20T15:41:37.359Z,10.50
2022-11-20T15:44:05.103Z,10.50
2022-11-20T15:46:39.195Z,10.50
2022-11-20T15:49:06.729Z,10.50
2022-11-20T15:51:35.004Z,10.50
2022-11-20T15:54:04.401Z,10.50
2022-11-20T15:56:34.054Z,10.60
2022-11-20T15:59:01.033Z,10.70
2022-11-20T16:01:28.056Z,10.50
2022-11-20T16:03:55.077Z,10.40
2022-11-20T16:06:22.128Z,10.40
2022-11-20T16:08:49.131Z,10.40
2022-11-20T16:11:17.254Z,10.40
2022-11-20T16:14:03.299Z,10.30
2022-11-20T16:16:31.878Z,10.30
2022-11-20T16:18:59.183Z,10.30
2022-11-20T16:21:31.893Z,10.30
2022-11-20T16:24:03.031Z,10.30
2022-11-20T16:26:30.232Z,10.20
2022-11-20T16:28:57.260Z,10.20
2022-11-20T16:31:24.208Z,10.20
2022-11-20T16:33:54.723Z,10.20
2022-11-20T16:36:22.813Z,10.10
2022-11-20T16:38:53.280Z,10.10
2022-11-20T16:41:20.595Z,10.00
2022-11-20T16:43:51.786Z,10.00
2022-11-20T16:46:20.212Z,10.00
2022-11-20T16:48:53.190Z,10.10
2022-11-20T16:51:20.169Z,10.10
2022-11-20T16:53:47.161Z,10.10
2022-11-20T16:56:18.487Z,10.10
2022-11-20T16:58:45.982Z,10.00
2022-11-20T17:01:14.522Z,10.10
2022-11-20T17:03:42.141Z,10.00
2022-11-20T17:06:16.079Z,10.00
2022-11-20T17:08:43.099Z,10.00
2022-11-20T17:11:11.096Z,10.00
2022-11-20T17:13:39.945Z,10.00
2022-11-20T17:16:08.557Z,9.90
2022-11-20T17:18:35.512Z,9.90
2022-11-20T17:21:05.344Z,10.00
2022-11-20T17:23:33.447Z,10.00
2022-11-20T17:26:06.233Z,10.00
2022-11-20T17:28:33.498Z,10.00
2022-11-20T17:31:08.262Z,9.90
2022-11-20T17:33:36.231Z,9.90
2022-11-20T17:36:03.709Z,9.90
2022-11-20T17:38:30.674Z,9.90
2022-11-20T17:41:04.547Z,9.80
2022-11-20T17:43:35.771Z,9.90
2022-11-20T17:46:13.004Z,9.80
2022-11-20T17:48:44.166Z,9.80
2022-11-20T17:51:12.477Z,9.80
2022-11-20T17:53:40.991Z,9.80
2022-11-20T17:56:26.930Z,9.80
2022-11-20T17:58:53.887Z,9.90
2022-11-20T18:01:21.421Z,9.80
2022-11-20T18:03:48.462Z,9.80
2022-11-20T18:06:16.886Z,9.70
2022-11-20T18:08:44.113Z,9.70
2022-11-20T18:11:11.060Z,9.70
2022-11-20T18:13:56.988Z,9.70
2022-11-20T18:16:24.419Z,9.70
2022-11-20T18:18:53.780Z,9.70
2022-11-20T18:21:20.854Z,9.70
2022-11-20T18:23:48.249Z,9.70
2022-11-20T18:26:15.405Z,9.60
2022-11-20T18:28:42.427Z,9.60
2022-11-20T18:31:09.399Z,9.70
2022-11-20T18:33:36.392Z,9.60
2022-11-20T18:36:20.202Z,9.60
2022-11-20T18:38:48.663Z,9.50
2022-11-20T18:41:36.115Z,9.60
2022-11-20T18:44:23.348Z,9.60
2022-11-20T18:46:50.783Z,9.60
2022-11-20T18:49:18.171Z,9.60
2022-11-20T18:51:45.158Z,9.60
2022-11-20T18:54:12.240Z,9.80
2022-11-20T18:56:39.413Z,9.70
2022-11-20T18:59:07.938Z,9.80
2022-11-20T19:01:35.536Z,9.80
2022-11-20T19:04:12.365Z,9.90
2022-11-20T19:06:40.465Z,9.90
2022-11-20T19:09:11.625Z,9.90
2022-11-20T19:11:39.392Z,9.90
2022-11-20T19:14:06.615Z,9.80
2022-11-20T19:16:34.095Z,9.70
2022-11-20T19:19:03.442Z,9.70
2022-11-20T19:21:30.993Z,9.70
2022-11-20T19:23:59.200Z,9.70
2022-11-20T19:26:26.516Z,9.60
2022-11-20T19:28:53.746Z,9.40
2022-11-20T19:31:24.634Z,9.30
2022-11-20T19:33:55.813Z,9.30
2022-11-20T19:36:26.631Z,9.30
2022-11-20T19:38:54.358Z,9.20
2022-11-20T19:41:22.625Z,9.10
2022-11-20T19:43:49.980Z,9.10
2022-11-20T19:46:18.238Z,9.00
2022-11-20T19:48:45.183Z,8.90
2022-11-20T19:51:14.365Z,8.90
2022-11-20T19:53:41.804Z,9.00
2022-11-20T19:56:09.085Z,8.90
2022-11-20T19:58:36.490Z,8.50
2022-11-20T20:01:10.655Z,8.20
2022-11-20T20:03:38.410Z,7.90
2022-11-20T20:06:06.739Z,8.10
2022-11-20T20:08:34.191Z,8.20
2022-11-20T20:11:09.486Z,8.40
2022-11-20T20:13:36.572Z,8.30
2022-11-20T20:16:05.884Z,8.30
2022-11-20T20:18:32.938Z,8.20
2022-11-20T20:21:04.153Z,8.10
2022-11-20T20:23:31.292Z,8.10
2022-11-20T20:25:58.784Z,8.10
2022-11-20T20:28:26.638Z,8.00
2022-11-20T20:30:53.879Z,8.00
2022-11-20T20:33:21.360Z,8.10
2022-11-20T20:35:48.428Z,7.80
2022-11-20T20:38:15.401Z,7.70
2022-11-20T20:40:51.925Z,7.60
2022-11-20T20:43:18.903Z,7.40
2022-11-20T20:45:47.232Z,7.30
2022-11-20T20:48:15.210Z,7.40
2022-11-20T20:50:42.989Z,7.30
2022-11-20T20:53:10.150Z,7.20
2022-11-20T20:55:37.120Z,7.20
2022-11-20T20:58:04.249Z,7.30
2022-11-20T21:00:31.243Z,7.40
2022-11-20T21:02:58.330Z,7.30
2022-11-20T21:05:25.333Z,7.30
2022-11-20T21:08:10.640Z,7.00
2022-11-20T21:10:38.241Z,7.00
2022-11-20T21:13:05.306Z,6.90
2022-11-20T21:15:32.268Z,6.90
2022-11-20T21:17:59.196Z,6.80
2022-11-20T21:20:44.562Z,6.80
2022-11-20T21:23:11.543Z,6.80
2022-11-20T21:25:39.166Z,7.00
2022-11-20T21:28:06.615Z,7.10
2022-11-20T21:30:33.815Z,7.10
2022-11-20T21:33:01.132Z,7.10
2022-11-20T21:35:28.231Z,7.10
2022-11-20T21:37:55.825Z,7.10
2022-11-20T21:40:23.010Z,7.10
2022-11-20T21:42:50.023Z,7.00
2022-11-20T21:45:17.173Z,7.10
2022-11-20T21:47:44.131Z,7.10
2022-11-20T21:50:11.250Z,7.10
2022-11-20T21:52:38.229Z,7.00
2022-11-20T21:55:05.406Z,7.00
2022-11-20T21:57:35.518Z,7.00
2022-11-20T22:00:04.702Z,7.20
2022-11-20T22:02:31.632Z,7.30
2022-11-20T22:04:58.609Z,7.20
2022-11-20T22:07:25.616Z,7.20
2022-11-20T22:09:52.565Z,7.10
2022-11-20T22:12:19.521Z,7.20
2022-11-20T22:14:46.517Z,7.30
2022-11-20T22:17:14.120Z,7.60
2022-11-20T22:19:41.100Z,7.40
2022-11-20T22:22:08.104Z,7.60
2022-11-20T22:24:35.143Z,7.60
2022-11-20T22:27:02.215Z,7.40
2022-11-20T22:29:29.215Z,7.50
2022-11-20T22:31:56.122Z,7.40
2022-11-20T22:34:23.420Z,7.50
2022-11-20T22:36:50.600Z,7.70
2022-11-20T22:39:17.737Z,7.90
2022-11-20T22:41:44.740Z,7.80
2022-11-20T22:44:15.464Z,7.80
2022-11-20T22:46:42.500Z,7.80
2022-11-20T22:49:09.515Z,7.80
2022-11-20T22:51:38.654Z,7.70
2022-11-20T22:54:05.683Z,7.90
2022-11-20T22:56:32.759Z,7.60
2022-11-20T22:58:59.681Z,7.60
2022-11-20T23:01:32.606Z,7.60
2022-11-20T23:04:00.638Z,7.60
2022-11-20T23:06:27.983Z,7.70
2022-11-20T23:08:55.288Z,7.60
2022-11-20T23:11:26.538Z,7.60
2022-11-20T23:14:00.478Z,7.50
2022-11-20T23:16:27.929Z,7.70
2022-11-20T23:18:55.690Z,7.80
2022-11-20T23:21:22.999Z,7.60
2022-11-20T23:23:50.875Z,7.70
2022-11-20T23:26:19.210Z,7.50
2022-11-20T23:28:46.554Z,7.40
2022-11-20T23:31:14.149Z,7.30
2022-11-20T23:33:42.337Z,7.30
2022-11-20T23:36:09.636Z,7.40
2022-11-20T23:38:37.526Z,7.60
2022-11-20T23:41:04.680Z,7.60
2022-11-20T23:43:31.893Z,7.60
2022-11-20T23:45:59.709Z,7.50
2022-11-20T23:48:29.241Z,7.50
2022-11-20T23:50:56.471Z,7.70
2022-11-20T23:53:23.778Z,7.70
2022-11-20T23:55:51.872Z,7.60
2022-11-20T23:58:19.327Z,7.70
